createdAt,value
2017-05-01T00:00:03.995Z,18.28
2017-05-01T00:00:22.778Z,18.28
2017-05-01T00:00:42.084Z,18.34
2017-05-01T00:01:01.361Z,18.24
2017-05-01T00:01:20.645Z,18.21
2017-05-01T00:01:39.411Z,18.25
2017-05-01T00:01:58.691Z,18.27
2017-05-01T00:02:18.002Z,18.25
2017-05-01T00:02:37.280Z,18.31
2017-05-01T00:02:56.552Z,18.31
2017-05-01T00:03:15.864Z,18.29
2017-05-01T00:03:35.127Z,18.32
2017-05-01T00:03:54.421Z,18.18
2017-05-01T00:04:13.703Z,18.28
2017-05-01T00:04:32.979Z,18.25
2017-05-01T00:04:52.262Z,18.22
2017-05-01T00:05:11.509Z,18.24
2017-05-01T00:05:30.754Z,18.27
2017-05-01T00:05:49.527Z,18.25
2017-05-01T00:06:08.812Z,18.28
2017-05-01T00:06:28.108Z,18.27
2017-05-01T00:06:47.388Z,18.27
2017-05-01T00:07:06.685Z,18.22
2017-05-01T00:07:25.971Z,18.27
2017-05-01T00:07:45.260Z,18.31
2017-05-01T00:08:04.546Z,18.28
2017-05-01T00:08:23.819Z,18.32
2017-05-01T00:08:43.126Z,18.27
2017-05-01T00:09:02.425Z,18.24
2017-05-01T00:09:21.718Z,18.24
2017-05-01T00:09:41.009Z,18.24
2017-05-01T00:10:00.279Z,18.25
2017-05-01T00:10:19.555Z,18.24
2017-05-01T00:10:38.834Z,18.24
2017-05-01T00:10:58.123Z,18.27
2017-05-01T00:11:17.413Z,18.29
2017-05-01T00:11:36.709Z,18.28
2017-05-01T00:11:55.999Z,18.27
2017-05-01T00:12:15.317Z,18.27
2017-05-01T00:12:34.597Z,18.24
2017-05-01T00:12:53.889Z,18.25
2017-05-01T00:13:13.190Z,18.24
2017-05-01T00:13:32.506Z,18.24
2017-05-01T00:13:51.776Z,18.31
2017-05-01T00:14:10.571Z,18.25
2017-05-01T00:14:29.879Z,18.27
2017-05-01T00:14:49.158Z,18.21
2017-05-01T00:15:07.927Z,18.31
2017-05-01T00:15:26.680Z,18.25
2017-05-01T00:15:45.957Z,18.21
2017-05-01T00:16:05.276Z,18.29
2017-05-01T00:16:24.580Z,18.32
2017-05-01T00:16:43.833Z,18.24
2017-05-01T00:17:03.109Z,18.28
2017-05-01T00:17:21.909Z,18.34
2017-05-01T00:17:41.462Z,18.25
2017-05-01T00:18:00.760Z,18.27
2017-05-01T00:18:19.533Z,18.24
2017-05-01T00:18:38.780Z,18.32
2017-05-01T00:18:57.565Z,18.32
2017-05-01T00:19:16.843Z,18.21
2017-05-01T00:19:36.152Z,18.25
2017-05-01T00:19:54.951Z,18.25
2017-05-01T00:20:14.240Z,18.28
2017-05-01T00:20:33.527Z,18.18
2017-05-01T00:20:52.295Z,18.27
2017-05-01T00:21:11.563Z,18.25
2017-05-01T00:21:30.874Z,18.27
2017-05-01T00:21:49.648Z,18.29
2017-05-01T00:22:08.926Z,18.35
2017-05-01T00:22:28.203Z,18.31
2017-05-01T00:22:47.503Z,18.19
2017-05-01T00:23:06.794Z,18.31
2017-05-01T00:23:26.075Z,18.31
2017-05-01T00:23:44.318Z,18.32
2017-05-01T00:24:03.563Z,18.31
2017-05-01T00:24:22.310Z,18.21
2017-05-01T00:24:41.634Z,18.28
2017-05-01T00:25:00.889Z,18.27
2017-05-01T00:25:19.634Z,18.25
2017-05-01T00:25:38.925Z,18.22
2017-05-01T00:25:58.178Z,18.19
2017-05-01T00:26:17.495Z,18.24
2017-05-01T00:26:36.765Z,18.24
2017-05-01T00:26:55.520Z,18.21
2017-05-01T00:27:14.831Z,18.18
2017-05-01T00:27:34.135Z,18.18
2017-05-01T00:27:53.406Z,18.19
2017-05-01T00:28:12.676Z,18.22
2017-05-01T00:28:31.986Z,18.22
2017-05-01T00:28:51.324Z,18.19
2017-05-01T00:29:10.641Z,18.14
2017-05-01T00:29:29.945Z,18.22
2017-05-01T00:29:49.207Z,18.24
2017-05-01T00:30:08.476Z,18.24
2017-05-01T00:30:27.747Z,18.24
2017-05-01T00:30:47.059Z,18.24
2017-05-01T00:31:06.331Z,18.24
2017-05-01T00:31:25.578Z,18.25
2017-05-01T00:31:44.870Z,18.27
2017-05-01T00:32:04.157Z,18.29
2017-05-01T00:32:23.463Z,18.27
2017-05-01T00:32:42.765Z,18.22
2017-05-01T00:33:02.019Z,18.27
2017-05-01T00:33:21.348Z,18.24
2017-05-01T00:33:40.596Z,18.24
2017-05-01T00:33:59.902Z,18.27
2017-05-01T00:34:19.193Z,18.29
2017-05-01T00:34:38.467Z,18.16
2017-05-01T00:34:57.750Z,18.28
2017-05-01T00:35:17.068Z,18.28
2017-05-01T00:35:36.394Z,18.22
2017-05-01T00:35:55.173Z,18.25
2017-05-01T00:36:14.461Z,18.22
2017-05-01T00:36:33.750Z,18.34
2017-05-01T00:36:53.033Z,18.29
2017-05-01T00:37:12.354Z,18.28
2017-05-01T00:37:31.168Z,18.35
2017-05-01T00:37:49.930Z,18.27
2017-05-01T00:38:09.247Z,18.31
2017-05-01T00:38:28.011Z,18.32
2017-05-01T00:38:47.309Z,18.28
2017-05-01T00:39:06.576Z,18.24
2017-05-01T00:39:25.836Z,18.28
2017-05-01T00:39:44.604Z,18.25
2017-05-01T00:40:03.865Z,18.32
2017-05-01T00:40:22.637Z,18.28
2017-05-01T00:40:41.923Z,18.22
2017-05-01T00:41:01.181Z,18.34
2017-05-01T00:41:20.462Z,18.31
2017-05-01T00:41:39.784Z,18.31
2017-05-01T00:41:59.077Z,18.24
2017-05-01T00:42:18.440Z,18.27
2017-05-01T00:42:37.744Z,18.24
2017-05-01T00:42:57.179Z,18.32
2017-05-01T00:43:15.952Z,18.31
2017-05-01T00:43:35.271Z,18.22
2017-05-01T00:43:54.656Z,18.28
2017-05-01T00:44:13.445Z,18.25
2017-05-01T00:44:32.692Z,18.21
2017-05-01T00:44:51.985Z,18.29
2017-05-01T00:45:10.771Z,18.19
2017-05-01T00:45:29.515Z,18.22
2017-05-01T00:45:48.814Z,18.31
2017-05-01T00:46:08.095Z,18.31
2017-05-01T00:46:27.385Z,18.27
2017-05-01T00:46:46.178Z,18.24
2017-05-01T00:47:05.438Z,18.16
2017-05-01T00:47:24.171Z,18.18
2017-05-01T00:47:43.465Z,18.24
2017-05-01T00:48:02.781Z,18.21
2017-05-01T00:48:22.075Z,18.18
2017-05-01T00:48:41.384Z,18.18
2017-05-01T00:49:00.147Z,18.22
2017-05-01T00:49:19.430Z,18.24
2017-05-01T00:49:38.715Z,18.25
2017-05-01T00:49:57.988Z,18.25
2017-05-01T00:50:16.767Z,18.27
2017-05-01T00:50:36.043Z,18.27
2017-05-01T00:50:55.317Z,18.24
2017-05-01T00:51:14.121Z,18.22
2017-05-01T00:51:33.402Z,18.24
2017-05-01T00:51:52.693Z,18.22
2017-05-01T00:52:12.537Z,18.19
2017-05-01T00:52:31.833Z,18.21
2017-05-01T00:52:51.127Z,18.24
2017-05-01T00:53:10.387Z,18.27
2017-05-01T00:53:29.145Z,18.25
2017-05-01T00:53:48.425Z,18.25
2017-05-01T00:54:07.175Z,18.27
2017-05-01T00:54:26.441Z,18.28
2017-05-01T00:54:45.758Z,18.25
2017-05-01T00:55:04.503Z,18.28
2017-05-01T00:55:23.804Z,18.31
2017-05-01T00:55:43.078Z,18.27
2017-05-01T00:56:01.311Z,18.24
2017-05-01T00:56:20.595Z,18.24
2017-05-01T00:56:39.837Z,18.19
2017-05-01T00:56:58.605Z,18.28
2017-05-01T00:57:17.889Z,18.32
2017-05-01T00:57:37.150Z,18.32
2017-05-01T00:57:56.454Z,18.32
2017-05-01T00:58:15.271Z,18.22
2017-05-01T00:58:34.544Z,18.25
2017-05-01T00:58:53.829Z,18.28
2017-05-01T00:59:13.109Z,18.24
2017-05-01T00:59:32.395Z,18.21
2017-05-01T00:59:51.665Z,18.22
2017-05-01T01:00:10.928Z,18.28
2017-05-01T01:00:29.719Z,18.28
2017-05-01T01:00:49.009Z,18.24
2017-05-01T01:01:08.262Z,18.31
2017-05-01T01:01:27.551Z,18.25
2017-05-01T01:01:45.796Z,18.24
2017-05-01T01:02:05.065Z,18.25
2017-05-01T01:02:23.849Z,18.13
2017-05-01T01:02:43.189Z,18.21
2017-05-01T01:03:02.520Z,18.22
2017-05-01T01:03:21.791Z,18.22
2017-05-01T01:03:41.058Z,18.24
2017-05-01T01:03:59.819Z,18.27
2017-05-01T01:04:18.628Z,18.25
2017-05-01T01:04:37.956Z,18.29
2017-05-01T01:04:57.261Z,18.27
2017-05-01T01:05:16.553Z,18.13
2017-05-01T01:05:34.807Z,18.24
2017-05-01T01:05:54.065Z,18.24
2017-05-01T01:06:13.331Z,18.25
2017-05-01T01:06:32.088Z,18.21
2017-05-01T01:06:51.362Z,18.34
2017-05-01T01:07:10.663Z,18.24
2017-05-01T01:07:29.457Z,18.34
2017-05-01T01:07:48.842Z,18.25
2017-05-01T01:08:08.119Z,18.34
2017-05-01T01:08:26.887Z,18.27
2017-05-01T01:08:46.170Z,18.22
2017-05-01T01:09:05.500Z,18.27
2017-05-01T01:09:24.271Z,18.35
2017-05-01T01:09:43.029Z,18.31
2017-05-01T01:10:02.333Z,18.28
2017-05-01T01:10:21.102Z,18.22
2017-05-01T01:10:40.408Z,18.35
2017-05-01T01:10:59.685Z,18.32
2017-05-01T01:11:18.456Z,18.39
2017-05-01T01:11:37.764Z,18.29
2017-05-01T01:11:57.024Z,18.28
2017-05-01T01:12:15.806Z,18.34
2017-05-01T01:12:35.096Z,18.44
2017-05-01T01:12:54.363Z,18.39
2017-05-01T01:13:13.134Z,18.22
2017-05-01T01:13:32.437Z,18.28
2017-05-01T01:13:51.728Z,18.32
2017-05-01T01:14:10.984Z,18.34
2017-05-01T01:14:29.805Z,18.39
2017-05-01T01:14:49.076Z,18.39
2017-05-01T01:15:07.837Z,18.34
2017-05-01T01:15:26.617Z,18.39
2017-05-01T01:15:45.923Z,18.42
2017-05-01T01:16:05.207Z,18.42
2017-05-01T01:16:23.981Z,18.47
2017-05-01T01:16:43.215Z,18.39
2017-05-01T01:17:02.521Z,18.4
2017-05-01T01:17:21.291Z,18.37
2017-05-01T01:17:40.663Z,18.34
2017-05-01T01:17:59.411Z,18.37
2017-05-01T01:18:18.187Z,18.37
2017-05-01T01:18:37.444Z,18.35
2017-05-01T01:18:56.733Z,18.43
2017-05-01T01:19:16.017Z,18.28
2017-05-01T01:19:35.290Z,18.19
2017-05-01T01:19:54.543Z,18.21
2017-05-01T01:20:13.814Z,18.28
2017-05-01T01:20:32.043Z,18.21
2017-05-01T01:20:51.314Z,18.32
2017-05-01T01:21:10.587Z,18.27
2017-05-01T01:21:29.915Z,18.21
2017-05-01T01:21:49.191Z,18.25
2017-05-01T01:22:08.471Z,18.24
2017-05-01T01:22:27.748Z,18.32
2017-05-01T01:22:46.527Z,18.35
2017-05-01T01:23:05.815Z,18.32
2017-05-01T01:23:25.141Z,18.32
2017-05-01T01:23:44.425Z,18.32
2017-05-01T01:24:03.715Z,18.24
2017-05-01T01:24:22.551Z,18.32
2017-05-01T01:24:41.824Z,18.32
2017-05-01T01:25:01.099Z,18.43
2017-05-01T01:25:20.366Z,18.39
2017-05-01T01:25:39.641Z,18.44
2017-05-01T01:25:58.935Z,18.42
2017-05-01T01:26:18.239Z,18.44
2017-05-01T01:26:37.008Z,18.4
2017-05-01T01:26:56.271Z,18.49
2017-05-01T01:27:15.571Z,18.4
2017-05-01T01:27:34.842Z,18.57
2017-05-01T01:27:53.824Z,18.49
2017-05-01T01:28:12.598Z,18.52
2017-05-01T01:28:31.386Z,18.55
2017-05-01T01:28:50.659Z,18.49
2017-05-01T01:29:09.931Z,18.59
2017-05-01T01:29:29.186Z,18.61
2017-05-01T01:29:48.479Z,18.57
2017-05-01T01:30:07.785Z,18.58
2017-05-01T01:30:26.565Z,18.49
2017-05-01T01:30:45.866Z,18.58
2017-05-01T01:31:05.145Z,18.59
2017-05-01T01:31:23.894Z,18.71
2017-05-01T01:31:42.657Z,18.61
2017-05-01T01:32:01.949Z,18.73
2017-05-01T01:32:20.694Z,18.67
2017-05-01T01:32:40.011Z,18.64
2017-05-01T01:32:58.768Z,18.65
2017-05-01T01:33:18.043Z,18.67
2017-05-01T01:33:36.854Z,18.71
2017-05-01T01:33:56.164Z,18.65
2017-05-01T01:34:15.478Z,18.73
2017-05-01T01:34:34.220Z,18.65
2017-05-01T01:34:53.006Z,18.58
2017-05-01T01:35:12.319Z,18.68
2017-05-01T01:35:31.599Z,18.59
2017-05-01T01:35:50.872Z,18.64
2017-05-01T01:36:10.173Z,18.64
2017-05-01T01:36:28.923Z,18.69
2017-05-01T01:36:48.168Z,18.73
2017-05-01T01:37:07.471Z,18.73
2017-05-01T01:37:26.222Z,18.68
2017-05-01T01:37:45.481Z,18.76
2017-05-01T01:38:04.761Z,18.73
2017-05-01T01:38:23.553Z,18.73
2017-05-01T01:38:42.804Z,18.8
2017-05-01T01:39:01.589Z,18.79
2017-05-01T01:39:20.877Z,18.84
2017-05-01T01:39:39.675Z,18.8
2017-05-01T01:39:58.469Z,18.73
2017-05-01T01:40:17.229Z,18.82
2017-05-01T01:40:36.502Z,18.8
2017-05-01T01:40:55.789Z,18.73
2017-05-01T01:41:15.031Z,18.8
2017-05-01T01:41:34.330Z,18.79
2017-05-01T01:41:53.072Z,18.68
2017-05-01T01:42:12.363Z,18.64
2017-05-01T01:42:31.670Z,18.69
2017-05-01T01:42:50.975Z,18.77
2017-05-01T01:43:10.269Z,18.73
2017-05-01T01:43:29.582Z,18.8
2017-05-01T01:43:48.861Z,18.69
2017-05-01T01:44:07.642Z,18.77
2017-05-01T01:44:26.378Z,18.77
2017-05-01T01:44:45.640Z,18.76
2017-05-01T01:45:04.912Z,18.74
2017-05-01T01:45:24.208Z,18.79
2017-05-01T01:45:42.964Z,18.71
2017-05-01T01:46:02.204Z,18.73
2017-05-01T01:46:20.965Z,18.79
2017-05-01T01:46:39.730Z,18.59
2017-05-01T01:46:59.050Z,18.67
2017-05-01T01:47:18.329Z,18.58
2017-05-01T01:47:37.089Z,18.65
2017-05-01T01:47:56.370Z,18.68
2017-05-01T01:48:15.682Z,18.58
2017-05-01T01:48:34.479Z,18.58
2017-05-01T01:48:53.244Z,18.62
2017-05-01T01:49:12.545Z,18.61
2017-05-01T01:49:31.829Z,18.5
2017-05-01T01:49:51.092Z,18.49
2017-05-01T01:50:10.391Z,18.44
2017-05-01T01:50:29.688Z,18.5
2017-05-01T01:50:48.436Z,18.52
2017-05-01T01:51:07.706Z,18.55
2017-05-01T01:51:26.982Z,18.53
2017-05-01T01:51:46.286Z,18.52
2017-05-01T01:52:05.561Z,18.55
2017-05-01T01:52:24.835Z,18.52
2017-05-01T01:52:44.101Z,18.52
2017-05-01T01:53:03.370Z,18.49
2017-05-01T01:53:22.639Z,18.52
2017-05-01T01:53:41.399Z,18.57
2017-05-01T01:54:00.698Z,18.61
2017-05-01T01:54:19.485Z,18.61
2017-05-01T01:54:38.765Z,18.49
2017-05-01T01:54:58.075Z,18.58
2017-05-01T01:55:17.336Z,18.5
2017-05-01T01:55:36.590Z,18.53
2017-05-01T01:55:55.846Z,18.53
2017-05-01T01:56:14.638Z,18.49
2017-05-01T01:56:33.910Z,18.49
2017-05-01T01:56:52.684Z,18.47
2017-05-01T01:57:11.943Z,18.46
2017-05-01T01:57:31.173Z,18.43
2017-05-01T01:57:49.909Z,18.4
2017-05-01T01:58:09.183Z,18.35
2017-05-01T01:58:28.449Z,18.4
2017-05-01T01:58:47.734Z,18.22
2017-05-01T01:59:07.031Z,18.37
2017-05-01T01:59:26.292Z,18.27
2017-05-01T01:59:45.579Z,18.31
2017-05-01T02:00:04.834Z,18.28
2017-05-01T02:00:23.090Z,18.28
2017-05-01T02:00:41.852Z,18.25
2017-05-01T02:01:01.178Z,18.32
2017-05-01T02:01:20.544Z,18.25
2017-05-01T02:01:39.846Z,18.27
2017-05-01T02:01:59.116Z,18.32
2017-05-01T02:02:17.865Z,18.29
2017-05-01T02:02:37.186Z,18.24
2017-05-01T02:02:56.469Z,18.31
2017-05-01T02:03:15.238Z,18.28
2017-05-01T02:03:34.016Z,18.24
2017-05-01T02:03:53.346Z,18.31
2017-05-01T02:04:12.614Z,18.25
2017-05-01T02:04:31.900Z,18.18
2017-05-01T02:04:51.164Z,18.28
2017-05-01T02:05:10.437Z,18.18
2017-05-01T02:05:29.221Z,18.25
2017-05-01T02:05:48.505Z,18.29
2017-05-01T02:06:07.775Z,18.19
2017-05-01T02:06:26.560Z,18.28
2017-05-01T02:06:46.034Z,18.27
2017-05-01T02:07:05.301Z,18.31
2017-05-01T02:07:24.045Z,18.22
2017-05-01T02:07:43.630Z,18.34
2017-05-01T02:08:02.916Z,18.24
2017-05-01T02:08:22.212Z,18.34
2017-05-01T02:08:41.475Z,18.28
2017-05-01T02:09:00.745Z,18.31
2017-05-01T02:09:18.993Z,18.34
2017-05-01T02:09:37.745Z,18.27
2017-05-01T02:09:57.066Z,18.29
2017-05-01T02:10:16.354Z,18.28
2017-05-01T02:10:35.617Z,18.22
2017-05-01T02:10:54.909Z,18.21
2017-05-01T02:11:14.188Z,18.28
2017-05-01T02:11:33.465Z,18.25
2017-05-01T02:11:52.710Z,18.22
2017-05-01T02:12:11.993Z,18.24
2017-05-01T02:12:30.761Z,18.19
2017-05-01T02:12:50.057Z,18.19
2017-05-01T02:13:08.801Z,18.22
2017-05-01T02:13:28.097Z,18.22
2017-05-01T02:13:47.368Z,18.22
2017-05-01T02:14:06.629Z,18.19
2017-05-01T02:14:25.928Z,18.21
2017-05-01T02:14:45.250Z,18.1
2017-05-01T02:15:04.549Z,18.21
2017-05-01T02:15:23.844Z,18.16
2017-05-01T02:15:42.626Z,18.11
2017-05-01T02:16:01.917Z,18.14
2017-05-01T02:16:21.207Z,18.14
2017-05-01T02:16:39.973Z,18.11
2017-05-01T02:16:58.789Z,18.1
2017-05-01T02:17:18.072Z,18.18
2017-05-01T02:17:36.324Z,18.13
2017-05-01T02:17:55.618Z,18.07
2017-05-01T02:18:14.900Z,18.11
2017-05-01T02:18:33.685Z,18.04
2017-05-01T02:18:52.972Z,18.1
2017-05-01T02:19:12.231Z,18.07
2017-05-01T02:19:31.517Z,18.09
2017-05-01T02:19:50.796Z,18.13
2017-05-01T02:20:09.579Z,18.1
2017-05-01T02:20:28.340Z,18.13
2017-05-01T02:20:47.605Z,18.16
2017-05-01T02:21:06.896Z,18.06
2017-05-01T02:21:26.164Z,18.09
2017-05-01T02:21:45.453Z,18.06
2017-05-01T02:22:04.192Z,18.14
2017-05-01T02:22:23.457Z,18.06
2017-05-01T02:22:42.739Z,18.11
2017-05-01T02:23:01.510Z,18.06
2017-05-01T02:23:20.781Z,18.13
2017-05-01T02:23:40.070Z,18.07
2017-05-01T02:23:59.351Z,18.07
2017-05-01T02:24:18.101Z,18.1
2017-05-01T02:24:36.870Z,18.13
2017-05-01T02:24:56.179Z,17.94
2017-05-01T02:25:14.968Z,17.98
2017-05-01T02:25:34.235Z,17.95
2017-05-01T02:25:53.020Z,17.91
2017-05-01T02:26:12.311Z,17.94
2017-05-01T02:26:31.601Z,18.02
2017-05-01T02:26:50.348Z,18.07
2017-05-01T02:27:09.639Z,18
2017-05-01T02:27:28.907Z,18
2017-05-01T02:27:48.202Z,17.94
2017-05-01T02:28:07.477Z,17.94
2017-05-01T02:28:26.257Z,18.14
2017-05-01T02:28:45.525Z,18.1
2017-05-01T02:29:04.825Z,18.03
2017-05-01T02:29:24.114Z,18.09
2017-05-01T02:29:43.424Z,18.13
2017-05-01T02:30:02.690Z,18.11
2017-05-01T02:30:22.003Z,18.04
2017-05-01T02:30:40.776Z,17.98
2017-05-01T02:31:00.064Z,17.92
2017-05-01T02:31:19.339Z,17.95
2017-05-01T02:31:38.580Z,17.98
2017-05-01T02:31:57.877Z,17.94
2017-05-01T02:32:17.169Z,17.95
2017-05-01T02:32:36.477Z,17.91
2017-05-01T02:32:55.803Z,17.91
2017-05-01T02:33:14.600Z,17.95
2017-05-01T02:33:33.922Z,17.95
2017-05-01T02:33:52.727Z,17.88
2017-05-01T02:34:12.010Z,17.94
2017-05-01T02:34:31.267Z,17.96
2017-05-01T02:34:50.557Z,17.94
2017-05-01T02:35:09.867Z,17.94
2017-05-01T02:35:28.653Z,17.89
2017-05-01T02:35:47.397Z,17.88
2017-05-01T02:36:06.188Z,17.96
2017-05-01T02:36:24.948Z,17.96
2017-05-01T02:36:43.743Z,17.96
2017-05-01T02:37:02.528Z,17.95
2017-05-01T02:37:21.808Z,17.95
2017-05-01T02:37:41.393Z,17.96
2017-05-01T02:38:00.684Z,17.91
2017-05-01T02:38:19.930Z,17.85
2017-05-01T02:38:39.212Z,17.92
2017-05-01T02:38:58.500Z,17.88
2017-05-01T02:39:17.795Z,17.94
2017-05-01T02:39:37.091Z,17.85
2017-05-01T02:39:56.393Z,17.94
2017-05-01T02:40:15.198Z,17.95
2017-05-01T02:40:34.490Z,17.85
2017-05-01T02:40:52.724Z,17.85
2017-05-01T02:41:12.043Z,17.88
2017-05-01T02:41:31.347Z,17.89
2017-05-01T02:41:50.626Z,17.89
2017-05-01T02:42:09.950Z,17.91
2017-05-01T02:42:29.274Z,17.85
2017-05-01T02:42:48.554Z,17.87
2017-05-01T02:43:07.365Z,17.84
2017-05-01T02:43:26.170Z,17.88
2017-05-01T02:43:44.933Z,17.87
2017-05-01T02:44:04.197Z,17.81
2017-05-01T02:44:22.955Z,17.85
2017-05-01T02:44:42.275Z,17.87
2017-05-01T02:45:01.588Z,17.84
2017-05-01T02:45:20.324Z,17.89
2017-05-01T02:45:39.646Z,17.85
2017-05-01T02:45:58.939Z,17.87
2017-05-01T02:46:17.715Z,17.88
2017-05-01T02:46:37.021Z,17.88
2017-05-01T02:46:55.785Z,17.85
2017-05-01T02:47:15.029Z,17.95
2017-05-01T02:47:34.337Z,17.85
2017-05-01T02:47:53.644Z,17.94
2017-05-01T02:48:12.931Z,17.92
2017-05-01T02:48:31.705Z,17.87
2017-05-01T02:48:51.003Z,17.95
2017-05-01T02:49:09.774Z,17.96
2017-05-01T02:49:27.997Z,17.94
2017-05-01T02:49:47.256Z,17.95
2017-05-01T02:50:05.985Z,17.96
2017-05-01T02:50:24.708Z,17.95
2017-05-01T02:50:43.961Z,18
2017-05-01T02:51:02.741Z,17.95
2017-05-01T02:51:22.022Z,18
2017-05-01T02:51:41.287Z,17.95
2017-05-01T02:52:00.067Z,17.98
2017-05-01T02:52:18.478Z,18
2017-05-01T02:52:37.744Z,18.03
2017-05-01T02:52:57.063Z,17.98
2017-05-01T02:53:15.830Z,17.96
2017-05-01T02:53:34.576Z,18.11
2017-05-01T02:53:53.891Z,18.09
2017-05-01T02:54:13.164Z,18.1
2017-05-01T02:54:32.457Z,18.09
2017-05-01T02:54:51.774Z,18.06
2017-05-01T02:55:10.554Z,18.09
2017-05-01T02:55:29.859Z,18.07
2017-05-01T02:55:48.653Z,18.06
2017-05-01T02:56:07.953Z,18.11
2017-05-01T02:56:26.703Z,18.04
2017-05-01T02:56:45.974Z,17.96
2017-05-01T02:57:05.254Z,17.95
2017-05-01T02:57:24.547Z,17.96
2017-05-01T02:57:44.025Z,17.96
2017-05-01T02:58:02.809Z,17.94
2017-05-01T02:58:22.103Z,17.89
2017-05-01T02:58:41.359Z,17.98
2017-05-01T02:59:00.658Z,17.95
2017-05-01T02:59:20.038Z,17.94
2017-05-01T02:59:39.433Z,17.92
2017-05-01T02:59:58.730Z,17.85
2017-05-01T03:00:18.026Z,17.94
2017-05-01T03:00:37.296Z,17.94
2017-05-01T03:00:56.576Z,17.94
2017-05-01T03:01:15.835Z,17.94
2017-05-01T03:01:35.128Z,17.88
2017-05-01T03:01:53.924Z,17.89
2017-05-01T03:02:13.231Z,17.79
2017-05-01T03:02:32.552Z,17.85
2017-05-01T03:02:51.840Z,17.89
2017-05-01T03:03:11.116Z,17.82
2017-05-01T03:03:29.882Z,17.7
2017-05-01T03:03:49.201Z,17.81
2017-05-01T03:04:08.503Z,17.71
2017-05-01T03:04:26.760Z,17.74
2017-05-01T03:04:46.032Z,17.71
2017-05-01T03:05:05.322Z,17.74
2017-05-01T03:05:24.603Z,17.73
2017-05-01T03:05:43.882Z,17.71
2017-05-01T03:06:03.190Z,17.73
2017-05-01T03:06:21.968Z,17.64
2017-05-01T03:06:41.300Z,17.74
2017-05-01T03:07:00.598Z,17.71
2017-05-01T03:07:19.352Z,17.7
2017-05-01T03:07:38.984Z,17.71
2017-05-01T03:07:58.270Z,17.66
2017-05-01T03:08:17.546Z,17.69
2017-05-01T03:08:36.818Z,17.67
2017-05-01T03:08:56.093Z,17.63
2017-05-01T03:09:14.847Z,17.67
2017-05-01T03:09:34.129Z,17.69
2017-05-01T03:09:53.404Z,17.6
2017-05-01T03:10:12.180Z,17.6
2017-05-01T03:10:31.433Z,17.57
2017-05-01T03:10:50.699Z,17.58
2017-05-01T03:11:09.969Z,17.58
2017-05-01T03:11:28.716Z,17.57
2017-05-01T03:11:47.981Z,17.55
2017-05-01T03:12:07.285Z,17.55
2017-05-01T03:12:26.075Z,17.63
2017-05-01T03:12:44.929Z,17.64
2017-05-01T03:13:04.209Z,17.51
2017-05-01T03:13:23.511Z,17.63
2017-05-01T03:13:42.277Z,17.54
2017-05-01T03:14:01.544Z,17.53
2017-05-01T03:14:20.785Z,17.53
2017-05-01T03:14:40.102Z,17.51
2017-05-01T03:14:59.409Z,17.53
2017-05-01T03:15:18.658Z,17.58
2017-05-01T03:15:37.962Z,17.48
2017-05-01T03:15:56.746Z,17.51
2017-05-01T03:16:16.045Z,17.47
2017-05-01T03:16:35.320Z,17.57
2017-05-01T03:16:54.619Z,17.51
2017-05-01T03:17:13.899Z,17.51
2017-05-01T03:17:33.194Z,17.5
2017-05-01T03:17:51.577Z,17.53
2017-05-01T03:18:10.878Z,17.51
2017-05-01T03:18:30.130Z,17.51
2017-05-01T03:18:49.411Z,17.51
2017-05-01T03:19:08.196Z,17.5
2017-05-01T03:19:27.463Z,17.51
2017-05-01T03:19:46.792Z,17.47
2017-05-01T03:20:05.546Z,17.48
2017-05-01T03:20:24.322Z,17.51
2017-05-01T03:20:43.607Z,17.51
2017-05-01T03:21:02.877Z,17.51
2017-05-01T03:21:22.168Z,17.5
2017-05-01T03:21:40.934Z,17.47
2017-05-01T03:22:00.230Z,17.48
2017-05-01T03:22:18.483Z,17.4
2017-05-01T03:22:37.747Z,17.47
2017-05-01T03:22:57.039Z,17.48
2017-05-01T03:23:16.342Z,17.44
2017-05-01T03:23:35.684Z,17.46
2017-05-01T03:23:54.954Z,17.46
2017-05-01T03:24:14.231Z,17.46
2017-05-01T03:24:33.485Z,17.48
2017-05-01T03:24:52.739Z,17.46
2017-05-01T03:25:12.033Z,17.43
2017-05-01T03:25:30.769Z,17.47
2017-05-01T03:25:50.031Z,17.44
2017-05-01T03:26:09.327Z,17.38
2017-05-01T03:26:28.582Z,17.46
2017-05-01T03:26:47.882Z,17.36
2017-05-01T03:27:07.182Z,17.38
2017-05-01T03:27:25.961Z,17.5
2017-05-01T03:27:45.431Z,17.43
2017-05-01T03:28:04.710Z,17.46
2017-05-01T03:28:23.478Z,17.47
2017-05-01T03:28:42.778Z,17.48
2017-05-01T03:29:02.060Z,17.46
2017-05-01T03:29:21.337Z,17.46
2017-05-01T03:29:40.104Z,17.44
2017-05-01T03:29:59.391Z,17.48
2017-05-01T03:30:17.636Z,17.5
2017-05-01T03:30:36.906Z,17.47
2017-05-01T03:30:56.180Z,17.5
2017-05-01T03:31:14.956Z,17.51
2017-05-01T03:31:34.213Z,17.48
2017-05-01T03:31:52.987Z,17.44
2017-05-01T03:32:12.274Z,17.51
2017-05-01T03:32:31.544Z,17.48
2017-05-01T03:32:50.803Z,17.53
2017-05-01T03:33:10.092Z,17.48
2017-05-01T03:33:29.388Z,17.48
2017-05-01T03:33:48.663Z,17.51
2017-05-01T03:34:07.939Z,17.5
2017-05-01T03:34:27.244Z,17.48
2017-05-01T03:34:46.505Z,17.47
2017-05-01T03:35:05.759Z,17.5
2017-05-01T03:35:25.028Z,17.47
2017-05-01T03:35:43.786Z,17.47
2017-05-01T03:36:03.041Z,17.53
2017-05-01T03:36:22.318Z,17.48
2017-05-01T03:36:41.586Z,17.5
2017-05-01T03:37:00.871Z,17.54
2017-05-01T03:37:19.630Z,17.51
2017-05-01T03:37:38.915Z,17.5
2017-05-01T03:37:58.210Z,17.55
2017-05-01T03:38:17.498Z,17.55
2017-05-01T03:38:36.785Z,17.54
2017-05-01T03:38:55.559Z,17.47
2017-05-01T03:39:14.806Z,17.55
2017-05-01T03:39:34.122Z,17.5
2017-05-01T03:39:53.419Z,17.48
2017-05-01T03:40:12.225Z,17.48
2017-05-01T03:40:31.509Z,17.53
2017-05-01T03:40:49.742Z,17.53
2017-05-01T03:41:09.036Z,17.44
2017-05-01T03:41:27.806Z,17.51
2017-05-01T03:41:47.072Z,17.46
2017-05-01T03:42:06.397Z,17.39
2017-05-01T03:42:25.166Z,17.38
2017-05-01T03:42:44.434Z,17.38
2017-05-01T03:43:03.723Z,17.38
2017-05-01T03:43:22.506Z,17.36
2017-05-01T03:43:41.805Z,17.35
2017-05-01T03:44:01.122Z,17.35
2017-05-01T03:44:20.405Z,17.4
2017-05-01T03:44:39.668Z,17.35
2017-05-01T03:44:58.985Z,17.26
2017-05-01T03:45:17.773Z,17.38
2017-05-01T03:45:37.049Z,17.29
2017-05-01T03:45:56.342Z,17.35
2017-05-01T03:46:15.621Z,17.38
2017-05-01T03:46:34.890Z,17.38
2017-05-01T03:46:53.638Z,17.35
2017-05-01T03:47:12.942Z,17.33
2017-05-01T03:47:32.227Z,17.39
2017-05-01T03:47:51.523Z,17.38
2017-05-01T03:48:10.785Z,17.38
2017-05-01T03:48:30.104Z,17.4
2017-05-01T03:48:49.348Z,17.36
2017-05-01T03:49:08.634Z,17.3
2017-05-01T03:49:26.887Z,17.33
2017-05-01T03:49:45.662Z,17.39
2017-05-01T03:50:04.937Z,17.43
2017-05-01T03:50:23.709Z,17.38
2017-05-01T03:50:42.981Z,17.4
2017-05-01T03:51:02.217Z,17.3
2017-05-01T03:51:20.473Z,17.38
2017-05-01T03:51:39.738Z,17.39
2017-05-01T03:51:59.043Z,17.36
2017-05-01T03:52:17.833Z,17.35
2017-05-01T03:52:37.113Z,17.44
2017-05-01T03:52:55.910Z,17.36
2017-05-01T03:53:14.685Z,17.38
2017-05-01T03:53:33.978Z,17.39
2017-05-01T03:53:53.264Z,17.4
2017-05-01T03:54:12.600Z,17.26
2017-05-01T03:54:31.381Z,17.36
2017-05-01T03:54:50.655Z,17.32
2017-05-01T03:55:09.912Z,17.38
2017-05-01T03:55:28.667Z,17.35
2017-05-01T03:55:47.969Z,17.38
2017-05-01T03:56:07.241Z,17.35
2017-05-01T03:56:26.537Z,17.32
2017-05-01T03:56:45.816Z,17.33
2017-05-01T03:57:05.103Z,17.33
2017-05-01T03:57:23.869Z,17.3
2017-05-01T03:57:43.151Z,17.28
2017-05-01T03:58:02.488Z,17.23
2017-05-01T03:58:21.296Z,17.35
2017-05-01T03:58:40.565Z,17.3
2017-05-01T03:58:59.844Z,17.32
2017-05-01T03:59:18.600Z,17.35
2017-05-01T03:59:37.882Z,17.32
2017-05-01T03:59:56.629Z,17.02
2017-05-01T04:00:14.870Z,17.18
2017-05-01T04:00:34.093Z,17.1
2017-05-01T04:00:52.860Z,17.21
2017-05-01T04:01:12.155Z,17.2
2017-05-01T04:01:30.928Z,17.23
2017-05-01T04:01:49.669Z,17.14
2017-05-01T04:02:08.979Z,17.15
2017-05-01T04:02:28.270Z,17.1
2017-05-01T04:02:47.710Z,17.15
2017-05-01T04:03:06.979Z,17.14
2017-05-01T04:03:26.261Z,17.14
2017-05-01T04:03:45.056Z,17.05
2017-05-01T04:04:04.340Z,17.03
2017-05-01T04:04:23.113Z,17.08
2017-05-01T04:04:42.405Z,17.17
2017-05-01T04:05:01.670Z,17.05
2017-05-01T04:05:20.968Z,17.05
2017-05-01T04:05:40.270Z,17.17
2017-05-01T04:05:59.550Z,17.13
2017-05-01T04:06:18.316Z,17.14
2017-05-01T04:06:37.579Z,17.02
2017-05-01T04:06:56.852Z,17.05